Terminal Aerodrome Forecast
Issued by NWS

Home | Current Version | Previous Version | Text Only | Print | Product List | Glossary On
Versions: 1 2 3 4 5 6 7 8 9 10 11 12 13 14 15 16 17 18 19 20 21 22
000
FTUS44 KLIX 030520
TAFHDC
TAF
KHDC 030520Z 0306/0406 VRB03KT P6SM FEW120 BKN250
     FM031500 14005KT P6SM SCT045 BKN250 PROB30 0318/0322 4SM -TSRA
      BKN030CB
     FM040100 VRB04KT P6SM SCT110 BKN250=

USA.gov is the U.S. government's official web portal to all federal, state and local government web resources and services.